Time;durP1;ratioP1;P1;durP2;ratioP2;P2;SDS_P1;SDS_P2;PMS_P1;PMS_P2;Temp;Humidity;BMP_temperature;BMP_pressure;BME280_temperature;BME280_humidity;BME280_pressure;Samples;Min_cycle;Max_cycle;Signal;HPM_P1;HPM_P2
2021/05/13 00:00:32;;;;;;;3.05;0.35;;;11.10;98.00;;;;;;5020264;28;20060;-73
2021/05/13 00:02:58;;;;;;;0.60;0.30;;;11.00;98.00;;;;;;5019992;28;20026;-72
2021/05/13 00:05:24;;;;;;;3.80;1.42;;;11.00;98.00;;;;;;5020129;28;20053;-73
2021/05/13 00:07:50;;;;;;;4.20;0.30;;;11.00;98.00;;;;;;5019770;28;20373;-73
2021/05/13 00:10:20;;;;;;;2.20;0.20;;;11.00;98.00;;;;;;5019749;28;20022;-72
2021/05/13 00:12:59;;;;;;;1.40;0.20;;;11.10;98.00;;;;;;5019826;28;20041;-72
2021/05/13 00:15:37;;;;;;;3.33;0.30;;;11.10;98.00;;;;;;5019712;28;20050;-72
2021/05/13 00:18:03;;;;;;;3.53;0.40;;;11.10;98.00;;;;;;5019722;28;20030;-73
2021/05/13 00:20:32;;;;;;;0.70;0.20;;;11.10;98.00;;;;;;5019562;28;20061;-72
2021/05/13 00:22:58;;;;;;;0.40;0.30;;;11.10;98.00;;;;;;5020074;28;20022;-72
2021/05/13 00:25:25;;;;;;;0.50;0.30;;;11.00;98.00;;;;;;5019537;28;20107;-72
2021/05/13 00:27:51;;;;;;;0.50;0.40;;;11.00;98.00;;;;;;5019387;28;20048;-72
2021/05/13 00:30:18;;;;;;;0.40;0.20;;;11.00;98.00;;;;;;5019368;28;20030;-72
2021/05/13 00:32:44;;;;;;;1.45;0.20;;;11.00;98.00;;;;;;5019658;28;20160;-72
2021/05/13 00:35:12;;;;;;;0.30;0.20;;;11.00;98.00;;;;;;5019567;28;20029;-73
2021/05/13 00:37:38;;;;;;;0.30;0.20;;;11.00;98.00;;;;;;5019583;28;20037;-73
2021/05/13 00:40:06;;;;;;;0.43;0.30;;;11.00;98.00;;;;;;5019255;28;20030;-72
2021/05/13 00:42:31;;;;;;;2.45;0.30;;;11.10;98.00;;;;;;5019207;28;20030;-72
2021/05/13 00:44:57;;;;;;;0.65;0.20;;;11.10;98.00;;;;;;5019426;28;20036;-72
2021/05/13 00:47:25;;;;;;;0.30;0.20;;;11.10;98.00;;;;;;5019372;28;20315;-72
2021/05/13 00:49:51;;;;;;;0.50;0.30;;;11.00;98.00;;;;;;5018965;28;20037;-72
2021/05/13 00:52:19;;;;;;;0.50;0.30;;;11.00;98.00;;;;;;5019337;28;20030;-72
2021/05/13 00:54:45;;;;;;;2.25;0.52;;;11.00;98.00;;;;;;5018853;28;20458;-72
2021/05/13 00:57:15;;;;;;;0.47;0.38;;;10.90;98.00;;;;;;5018926;28;20061;-72
2021/05/13 00:59:45;;;;;;;0.30;0.30;;;10.90;98.00;;;;;;5019155;28;20032;-72
2021/05/13 01:02:13;;;;;;;2.08;0.22;;;10.90;98.00;;;;;;5019135;28;20092;-72
2021/05/13 01:04:39;;;;;;;0.75;0.30;;;10.80;98.00;;;;;;5018709;28;20045;-72
2021/05/13 01:07:05;;;;;;;0.40;0.25;;;10.80;98.00;;;;;;5019033;28;20036;-72
2021/05/13 01:09:32;;;;;;;0.52;0.20;;;10.80;98.00;;;;;;5018921;28;20321;-72
2021/05/13 01:12:06;;;;;;;5.10;0.40;;;10.90;98.00;;;;;;5018637;28;20076;-72
2021/05/13 01:14:41;;;;;;;1.15;0.22;;;10.90;98.00;;;;;;5018853;28;20077;-72
2021/05/13 01:19:39;;;;;;;2.95;0.30;;;10.90;98.00;;;;;;5018559;28;20057;-72
2021/05/13 01:22:04;;;;;;;0.73;0.32;;;10.90;98.00;;;;;;5018778;28;20053;-72
2021/05/13 01:24:30;;;;;;;1.75;0.30;;;10.80;98.00;;;;;;5018513;28;20026;-72
2021/05/13 01:26:57;;;;;;;0.50;0.40;;;10.70;98.00;;;;;;5018190;28;20076;-72
2021/05/13 01:29:25;;;;;;;1.30;0.28;;;10.70;98.00;;;;;;5018239;28;20105;-72
2021/05/13 01:31:51;;;;;;;0.60;0.40;;;10.60;98.00;;;;;;5018068;28;20022;-73
2021/05/13 01:34:18;;;;;;;0.60;0.40;;;10.60;98.00;;;;;;5018447;28;20318;-72
2021/05/13 01:36:45;;;;;;;1.88;0.30;;;10.50;98.00;;;;;;5018166;28;20018;-72
2021/05/13 01:39:11;;;;;;;1.85;0.35;;;10.60;98.00;;;;;;5018403;28;20033;-72
2021/05/13 01:41:39;;;;;;;2.47;0.40;;;10.60;98.00;;;;;;5018069;28;20033;-72
2021/05/13 01:44:05;;;;;;;0.77;0.30;;;10.50;98.00;;;;;;5017960;28;20029;-72
2021/05/13 01:46:32;;;;;;;2.72;0.30;;;10.50;98.00;;;;;;5017942;28;20034;-72
2021/05/13 01:48:57;;;;;;;1.17;0.43;;;10.60;98.00;;;;;;5017862;28;20034;-72
2021/05/13 01:51:23;;;;;;;0.77;0.32;;;10.60;98.00;;;;;;5018173;28;20022;-72
2021/05/13 01:53:49;;;;;;;0.80;0.40;;;10.60;98.00;;;;;;5018162;28;20030;-72
2021/05/13 01:56:15;;;;;;;1.67;0.40;;;10.50;98.00;;;;;;5018260;28;20025;-72
2021/05/13 01:58:42;;;;;;;1.25;0.30;;;10.50;98.00;;;;;;5017787;28;20053;-72
2021/05/13 02:01:13;;;;;;;2.80;0.50;;;10.50;98.00;;;;;;5018046;28;20025;-72
2021/05/13 02:03:40;;;;;;;1.42;0.50;;;10.50;98.00;;;;;;5017645;28;20109;-72
2021/05/13 02:06:06;;;;;;;2.72;0.32;;;10.50;98.00;;;;;;5017696;28;20026;-72
2021/05/13 02:08:32;;;;;;;1.15;0.47;;;10.50;98.00;;;;;;5017587;28;20068;-72
2021/05/13 02:10:59;;;;;;;1.17;0.30;;;10.50;98.00;;;;;;5017913;28;20018;-72
2021/05/13 02:13:25;;;;;;;2.28;0.43;;;10.50;98.00;;;;;;5017552;28;20018;-72
2021/05/13 02:15:51;;;;;;;0.40;0.30;;;10.60;98.00;;;;;;5017445;28;20022;-72
2021/05/13 02:18:18;;;;;;;2.30;0.20;;;10.60;98.00;;;;;;5017805;28;20065;-72
2021/05/13 02:20:44;;;;;;;0.40;0.30;;;10.60;98.00;;;;;;5017743;28;20322;-72
2021/05/13 02:23:09;;;;;;;1.55;0.40;;;10.70;98.00;;;;;;5017439;28;20033;-72
2021/05/13 02:25:37;;;;;;;0.77;0.20;;;10.70;98.00;;;;;;5017181;28;20049;-72
2021/05/13 02:28:03;;;;;;;0.95;0.30;;;10.80;98.00;;;;;;5017514;28;20042;-72
2021/05/13 02:30:29;;;;;;;0.28;0.20;;;10.80;98.00;;;;;;5017216;28;20018;-72
2021/05/13 02:32:54;;;;;;;0.57;0.30;;;10.90;98.00;;;;;;5017280;28;20113;-72
2021/05/13 02:35:21;;;;;;;0.30;0.20;;;11.00;98.00;;;;;;5017146;28;20046;-73
2021/05/13 02:37:47;;;;;;;0.93;0.35;;;11.00;98.00;;;;;;5017150;28;20084;-72
2021/05/13 02:40:15;;;;;;;0.40;0.30;;;11.10;98.00;;;;;;5017130;28;20025;-72
2021/05/13 02:42:41;;;;;;;0.80;0.30;;;11.10;98.00;;;;;;5016334;28;20076;-72
2021/05/13 02:45:08;;;;;;;0.30;0.20;;;11.10;98.00;;;;;;5016975;28;20414;-72
2021/05/13 02:47:34;;;;;;;0.38;0.20;;;11.10;98.00;;;;;;5017304;28;20451;-72
2021/05/13 02:50:00;;;;;;;0.75;0.20;;;11.10;98.00;;;;;;5016958;28;20109;-72
2021/05/13 02:52:26;;;;;;;0.22;0.20;;;11.10;98.00;;;;;;5016990;28;20058;-72
2021/05/13 02:54:52;;;;;;;0.32;0.20;;;11.00;98.00;;;;;;5016970;28;20045;-72
2021/05/13 02:57:18;;;;;;;1.55;0.20;;;11.00;98.00;;;;;;5016934;28;20034;-72
2021/05/13 02:59:45;;;;;;;0.20;0.20;;;11.00;98.00;;;;;;5016905;28;20149;-72
2021/05/13 03:02:13;;;;;;;0.63;0.20;;;11.00;98.00;;;;;;5016885;28;20037;-72
2021/05/13 03:04:40;;;;;;;0.75;0.20;;;11.00;98.00;;;;;;5017102;28;20077;-72
2021/05/13 03:07:05;;;;;;;0.60;0.30;;;11.00;98.00;;;;;;5016803;28;20030;-72
2021/05/13 03:09:33;;;;;;;0.25;0.20;;;11.00;98.00;;;;;;5016983;28;20108;-72
2021/05/13 03:11:59;;;;;;;0.98;0.40;;;11.00;98.00;;;;;;5016810;28;20026;-72
2021/05/13 03:14:25;;;;;;;0.73;0.30;;;11.00;98.00;;;;;;5016975;28;20032;-72
2021/05/13 03:16:50;;;;;;;1.88;0.30;;;11.00;98.00;;;;;;5017020;28;20402;-72
2021/05/13 03:19:22;;;;;;;0.40;0.20;;;11.00;98.00;;;;;;5017030;28;20316;-72
2021/05/13 03:21:50;;;;;;;1.02;0.30;;;11.00;98.00;;;;;;5017036;28;20041;-72
2021/05/13 03:24:42;;;;;;;1.27;0.38;;;11.10;98.00;;;;;;5016509;28;20022;-72
2021/05/13 03:29:37;;;;;;;0.88;0.30;;;11.10;98.00;;;;;;5016858;28;20037;-72
2021/05/13 03:32:03;;;;;;;0.50;0.30;;;11.10;98.00;;;;;;5016913;28;20026;-72
2021/05/13 03:34:28;;;;;;;0.77;0.30;;;11.10;98.00;;;;;;5016503;28;20048;-72
2021/05/13 03:36:54;;;;;;;0.88;0.40;;;11.20;98.00;;;;;;5016846;28;20018;-72
2021/05/13 03:39:20;;;;;;;2.40;0.30;;;11.20;98.00;;;;;;5016847;28;20058;-72
2021/05/13 03:41:46;;;;;;;0.93;0.30;;;11.30;98.00;;;;;;5016851;28;20075;-72
2021/05/13 03:44:11;;;;;;;0.57;0.30;;;11.30;98.00;;;;;;5016427;28;20407;-72
2021/05/13 03:46:37;;;;;;;0.73;0.50;;;11.30;98.00;;;;;;5016444;28;20050;-72
2021/05/13 03:49:03;;;;;;;0.30;0.30;;;11.30;98.00;;;;;;5016389;28;20033;-72
2021/05/13 03:51:29;;;;;;;0.88;0.35;;;11.30;98.00;;;;;;5016663;28;20022;-72
2021/05/13 03:53:55;;;;;;;0.82;0.30;;;11.30;98.00;;;;;;5017685;28;20022;-72
2021/05/13 03:56:21;;;;;;;2.25;0.40;;;11.30;98.00;;;;;;5020028;28;20334;-72
2021/05/13 03:59:20;;;;;;;0.65;0.40;;;11.20;98.00;;;;;;5020359;28;20041;-72
2021/05/13 04:04:37;;;;;;;0.50;0.38;;;11.30;98.00;;;;;;5018891;28;20044;-72
2021/05/13 04:07:05;;;;;;;0.82;0.30;;;11.30;98.00;;;;;;5019752;28;20373;-73
2021/05/13 04:09:31;;;;;;;3.03;0.52;;;11.30;98.00;;;;;;5019770;28;20109;-73
2021/05/13 04:11:58;;;;;;;0.90;0.55;;;11.40;98.00;;;;;;5020108;28;20026;-73
2021/05/13 04:14:23;;;;;;;0.90;0.30;;;11.40;98.00;;;;;;5019996;28;20343;-72
2021/05/13 04:16:55;;;;;;;0.68;0.38;;;11.40;98.00;;;;;;5019997;28;20060;-72
2021/05/13 04:19:21;;;;;;;1.60;0.50;;;11.50;98.00;;;;;;5019645;28;20033;-73
2021/05/13 04:21:47;;;;;;;2.75;0.57;;;11.50;98.00;;;;;;5019762;28;20449;-72
2021/05/13 04:24:14;;;;;;;2.42;0.60;;;11.60;98.00;;;;;;5019801;28;20028;-72
2021/05/13 04:26:41;;;;;;;1.33;0.35;;;11.70;98.00;;;;;;5019442;28;20141;-73
2021/05/13 04:29:08;;;;;;;0.80;0.60;;;11.80;97.60;;;;;;5019686;28;20017;-73
2021/05/13 04:31:35;;;;;;;0.95;0.32;;;11.90;97.50;;;;;;5019673;28;20379;-72
2021/05/13 04:34:01;;;;;;;0.70;0.40;;;12.00;97.50;;;;;;5019658;28;20422;-72
2021/05/13 04:36:27;;;;;;;0.70;0.35;;;12.10;97.20;;;;;;5019365;28;20057;-72
2021/05/13 04:38:53;;;;;;;0.60;0.45;;;12.20;97.30;;;;;;5019340;28;20101;-72
2021/05/13 04:41:19;;;;;;;0.40;0.38;;;12.30;96.90;;;;;;5019254;28;20116;-73
2021/05/13 04:43:45;;;;;;;2.47;0.40;;;12.40;97.20;;;;;;5019484;28;20084;-72
2021/05/13 04:46:11;;;;;;;2.00;0.50;;;12.50;96.50;;;;;;5019181;28;20121;-72
2021/05/13 04:48:53;;;;;;;2.88;0.60;;;12.60;95.90;;;;;;5018994;28;20026;-72
2021/05/13 04:51:26;;;;;;;1.13;0.75;;;12.60;95.10;;;;;;5019105;28;20056;-72
2021/05/13 04:53:52;;;;;;;2.97;0.88;;;12.70;94.70;;;;;;5019291;28;20390;-72
2021/05/13 04:56:21;;;;;;;1.20;0.70;;;12.70;92.70;;;;;;5019451;28;20080;-73
2021/05/13 04:58:48;;;;;;;1.23;0.77;;;12.80;95.40;;;;;;5019199;28;20107;-73
2021/05/13 05:01:14;;;;;;;4.47;0.65;;;12.90;94.90;;;;;;5019141;28;20072;-72
2021/05/13 05:03:40;;;;;;;1.27;0.65;;;12.90;95.00;;;;;;5018781;28;20441;-72
2021/05/13 05:06:06;;;;;;;0.73;0.47;;;12.90;95.20;;;;;;5017912;28;20026;-72
2021/05/13 05:08:32;;;;;;;0.85;0.50;;;13.00;94.30;;;;;;5018937;28;20033;-72
2021/05/13 05:10:58;;;;;;;1.70;0.38;;;13.00;92.50;;;;;;5018688;28;20021;-72
2021/05/13 05:13:23;;;;;;;0.60;0.40;;;13.00;92.50;;;;;;5018959;28;20072;-72
2021/05/13 05:15:49;;;;;;;1.17;0.45;;;12.90;93.50;;;;;;5018509;28;20384;-72
2021/05/13 05:18:22;;;;;;;0.82;0.40;;;12.90;95.50;;;;;;5018864;28;20033;-72
2021/05/13 05:20:49;;;;;;;4.10;0.40;;;12.90;95.50;;;;;;5018469;28;20037;-72
2021/05/13 05:23:15;;;;;;;1.35;0.50;;;13.00;96.30;;;;;;5018818;28;20026;-72
2021/05/13 05:25:42;;;;;;;1.08;0.52;;;13.10;96.30;;;;;;5018366;28;20062;-72
2021/05/13 05:28:08;;;;;;;0.85;0.70;;;13.10;96.20;;;;;;5018582;28;20034;-73
2021/05/13 05:30:34;;;;;;;1.83;0.55;;;13.20;94.20;;;;;;5018272;28;20369;-72
2021/05/13 05:33:05;;;;;;;0.80;0.50;;;13.10;94.40;;;;;;5018642;28;20021;-72
2021/05/13 05:35:32;;;;;;;3.45;0.50;;;13.20;95.60;;;;;;5018485;28;20056;-72
2021/05/13 05:37:58;;;;;;;4.28;0.88;;;13.20;95.80;;;;;;5018486;28;20029;-72
2021/05/13 05:40:24;;;;;;;1.15;0.70;;;13.20;94.40;;;;;;5018118;28;20330;-72
2021/05/13 05:42:52;;;;;;;3.28;0.50;;;13.20;95.30;;;;;;5018465;28;20097;-73
2021/05/13 05:45:23;;;;;;;1.02;0.75;;;13.30;94.40;;;;;;5018315;28;20025;-73
2021/05/13 05:47:50;;;;;;;1.02;0.52;;;13.30;94.30;;;;;;5017986;28;20018;-72
2021/05/13 05:50:16;;;;;;;6.07;1.02;;;13.40;94.90;;;;;;5017977;28;20030;-72
2021/05/13 05:52:42;;;;;;;1.67;0.90;;;13.50;95.10;;;;;;5017967;28;20414;-72
2021/05/13 05:55:09;;;;;;;0.95;0.80;;;13.50;93.60;;;;;;5018166;28;20029;-72
2021/05/13 05:57:35;;;;;;;2.90;0.93;;;13.60;93.20;;;;;;5018109;28;20048;-72
2021/05/13 06:00:02;;;;;;;2.88;1.63;;;13.60;92.40;;;;;;5017774;28;20033;-73
2021/05/13 06:02:28;;;;;;;1.77;1.05;;;13.60;92.70;;;;;;5017826;28;20030;-72
2021/05/13 06:04:54;;;;;;;2.22;1.60;;;13.50;94.20;;;;;;5017985;28;20080;-72
2021/05/13 06:07:21;;;;;;;2.28;0.85;;;13.50;93.60;;;;;;5017705;28;20101;-72
2021/05/13 06:09:46;;;;;;;1.42;1.10;;;13.50;94.10;;;;;;5017861;28;20108;-72
2021/05/13 06:12:13;;;;;;;2.33;1.40;;;13.50;94.20;;;;;;5017626;28;20077;-72
2021/05/13 06:14:39;;;;;;;1.88;1.58;;;13.70;92.80;;;;;;5017443;28;20022;-72
2021/05/13 06:17:05;;;;;;;1.80;1.05;;;14.00;92.30;;;;;;5017695;28;20021;-72
2021/05/13 06:19:31;;;;;;;2.60;1.60;;;14.30;90.70;;;;;;5017733;28;20065;-72
2021/05/13 06:21:56;;;;;;;4.55;1.65;;;14.50;91.30;;;;;;5017484;28;20053;-72
2021/05/13 06:24:23;;;;;;;3.20;1.77;;;14.80;88.60;;;;;;5017612;28;20113;-72
2021/05/13 06:27:04;;;;;;;3.80;1.25;;;15.00;87.50;;;;;;5017195;28;20054;-72
2021/05/13 06:29:30;;;;;;;3.60;0.80;;;15.30;87.30;;;;;;5017517;28;20040;-72
2021/05/13 06:31:56;;;;;;;1.38;0.70;;;15.60;89.00;;;;;;5017640;28;20018;-72
2021/05/13 06:34:22;;;;;;;0.90;0.60;;;16.00;87.40;;;;;;5017189;28;20155;-70
2021/05/13 06:36:48;;;;;;;0.98;0.65;;;16.40;83.70;;;;;;5017194;28;20050;-70
2021/05/13 06:39:14;;;;;;;2.10;1.10;;;16.40;82.90;;;;;;5017473;28;20352;-70
2021/05/13 06:41:42;;;;;;;1.58;0.77;;;16.40;82.20;;;;;;5017506;28;20077;-70
2021/05/13 06:44:08;;;;;;;1.20;0.73;;;16.60;85.80;;;;;;5017030;28;20042;-72
2021/05/13 06:46:34;;;;;;;1.42;0.80;;;16.70;83.70;;;;;;5017307;28;20109;-72
2021/05/13 06:49:00;;;;;;;1.75;0.82;;;17.20;82.90;;;;;;5017234;28;20108;-72
2021/05/13 06:51:26;;;;;;;1.13;0.75;;;17.40;80.90;;;;;;5016954;28;20026;-72
2021/05/13 06:53:52;;;;;;;1.38;0.80;;;17.50;81.80;;;;;;5017219;28;20033;-72
2021/05/13 06:56:18;;;;;;;1.30;0.60;;;17.40;80.70;;;;;;5017420;28;20022;-72
2021/05/13 06:58:45;;;;;;;3.17;0.80;;;17.10;81.10;;;;;;5016940;28;20311;-72
2021/05/13 07:01:10;;;;;;;1.40;0.80;;;16.40;83.80;;;;;;5016856;28;20057;-72
2021/05/13 07:03:36;;;;;;;1.30;1.08;;;16.00;85.30;;;;;;5017153;28;20053;-72
2021/05/13 07:06:03;;;;;;;1.40;1.13;;;15.60;85.00;;;;;;5016835;28;20449;-72
2021/05/13 07:08:28;;;;;;;1.30;1.02;;;15.10;87.60;;;;;;5016720;28;20478;-72
2021/05/13 07:10:55;;;;;;;1.70;1.40;;;14.90;89.60;;;;;;5016780;28;20105;-72
2021/05/13 07:13:21;;;;;;;3.85;1.60;;;14.80;90.10;;;;;;5016814;28;20056;-72
2021/05/13 07:15:47;;;;;;;2.75;1.50;;;14.70;90.10;;;;;;5016993;28;20368;-72
2021/05/13 07:18:18;;;;;;;3.08;2.10;;;14.60;91.00;;;;;;5017071;28;20096;-72
2021/05/13 07:20:44;;;;;;;6.78;2.28;;;14.50;91.10;;;;;;5016971;28;20022;-72
2021/05/13 07:23:11;;;;;;;4.18;1.90;;;14.50;92.10;;;;;;5016719;28;20026;-72
2021/05/13 07:25:37;;;;;;;2.55;2.17;;;14.50;91.20;;;;;;5016494;28;20081;-72
2021/05/13 07:28:03;;;;;;;4.63;1.63;;;14.40;90.70;;;;;;5016901;28;20034;-72
2021/05/13 07:30:29;;;;;;;3.72;2.25;;;14.30;91.80;;;;;;5020279;28;20314;-72
2021/05/13 07:32:55;;;;;;;4.78;2.28;;;14.30;91.30;;;;;;5020565;28;20045;-72
2021/05/13 07:35:22;;;;;;;4.63;2.67;;;14.30;90.30;;;;;;5020720;28;20109;-72
2021/05/13 07:37:48;;;;;;;3.63;2.40;;;14.20;92.00;;;;;;5020744;28;20030;-72
2021/05/13 07:40:18;;;;;;;3.47;2.75;;;14.10;93.00;;;;;;5020432;28;20030;-72
2021/05/13 07:42:46;;;;;;;4.85;2.50;;;14.00;93.00;;;;;;5020305;28;20026;-72
2021/05/13 07:45:13;;;;;;;3.88;2.60;;;14.00;92.00;;;;;;5020551;28;20088;-72
2021/05/13 07:47:39;;;;;;;3.88;3.33;;;14.10;91.80;;;;;;5020274;28;20033;-72
2021/05/13 07:50:10;;;;;;;5.70;2.80;;;14.10;91.60;;;;;;5020462;28;20398;-72
2021/05/13 07:52:36;;;;;;;3.05;2.75;;;14.20;92.40;;;;;;5020560;28;20065;-72
2021/05/13 07:55:04;;;;;;;4.15;2.50;;;14.20;92.70;;;;;;5020134;28;20109;-72
2021/05/13 07:57:30;;;;;;;3.05;1.98;;;14.30;93.00;;;;;;5020072;28;20333;-72
2021/05/13 07:59:56;;;;;;;2.70;2.20;;;14.30;90.70;;;;;;5020303;28;20110;-72
2021/05/13 08:02:21;;;;;;;3.00;2.70;;;14.30;91.10;;;;;;5020043;28;20418;-72
2021/05/13 08:04:48;;;;;;;2.90;2.60;;;14.30;91.60;;;;;;5020210;28;20072;-72
2021/05/13 08:07:22;;;;;;;4.50;2.53;;;14.30;91.80;;;;;;5019921;28;20113;-72
2021/05/13 08:09:48;;;;;;;2.80;2.13;;;14.40;92.80;;;;;;5019843;28;20446;-72
2021/05/13 08:12:15;;;;;;;4.72;2.30;;;14.60;88.60;;;;;;5019868;28;20414;-72
2021/05/13 08:14:41;;;;;;;6.55;2.95;;;14.70;90.40;;;;;;5019750;28;20470;-72
2021/05/13 08:17:07;;;;;;;4.07;2.75;;;14.70;90.20;;;;;;5020037;28;20031;-72
2021/05/13 08:19:33;;;;;;;4.25;2.58;;;14.90;89.40;;;;;;5019654;28;20052;-72
2021/05/13 08:21:59;;;;;;;4.35;2.15;;;15.60;87.30;;;;;;5019727;28;20030;-72
2021/05/13 08:24:25;;;;;;;5.18;2.00;;;16.10;84.20;;;;;;5019790;28;20097;-72
2021/05/13 08:26:50;;;;;;;5.18;2.35;;;16.40;84.90;;;;;;5019473;28;20061;-72
2021/05/13 08:29:16;;;;;;;3.85;2.10;;;16.80;85.50;;;;;;5019724;28;20414;-72
2021/05/13 08:31:42;;;;;;;7.38;1.85;;;17.10;83.50;;;;;;5019764;28;20417;-72
2021/05/13 08:34:07;;;;;;;3.42;1.70;;;17.80;82.00;;;;;;5019701;28;20323;-72
2021/05/13 08:36:33;;;;;;;2.78;1.67;;;17.60;84.40;;;;;;5019669;28;20030;-72
2021/05/13 08:38:59;;;;;;;4.53;2.10;;;17.60;84.30;;;;;;5019292;28;20109;-72
2021/05/13 08:41:24;;;;;;;4.68;1.90;;;18.40;81.80;;;;;;5018255;28;20026;-72
2021/05/13 08:43:52;;;;;;;3.97;1.80;;;19.30;80.20;;;;;;5019507;28;20034;-72
2021/05/13 08:46:18;;;;;;;3.88;1.70;;;19.90;73.60;;;;;;5019487;28;20050;-72
2021/05/13 08:48:45;;;;;;;2.53;1.48;;;20.30;74.80;;;;;;5019071;28;20104;-70
2021/05/13 08:51:13;;;;;;;2.17;1.58;;;20.10;74.00;;;;;;5019083;28;20434;-70
2021/05/13 08:53:56;;;;;;;4.22;1.38;;;20.10;73.80;;;;;;5019039;28;20419;-71
2021/05/13 08:56:23;;;;;;;3.97;1.33;;;19.80;75.90;;;;;;5019497;28;20437;-70
2021/05/13 08:58:48;;;;;;;2.10;1.20;;;19.40;75.50;;;;;;5018784;28;20041;-71
2021/05/13 09:01:22;;;;;;;4.55;1.30;;;19.20;75.40;;;;;;5019171;28;20029;-70
2021/05/13 09:03:49;;;;;;;7.95;1.55;;;19.10;77.70;;;;;;5019111;28;20018;-72
2021/05/13 09:06:36;;;;;;;2.95;1.30;;;19.30;77.60;;;;;;5018784;28;20026;-71
2021/05/13 09:09:16;;;;;;;2.25;1.38;;;20.40;74.90;;;;;;5018693;28;20444;-70
2021/05/13 09:12:00;;;;;;;1.38;1.20;;;21.20;69.80;;;;;;5018690;28;20062;-70
2021/05/13 09:14:28;;;;;;;4.60;1.30;;;21.60;67.70;;;;;;5018950;28;20026;-70
2021/05/13 09:16:55;;;;;;;2.00;1.08;;;21.40;70.50;;;;;;5018892;28;20050;-71
2021/05/13 09:19:25;;;;;;;2.08;1.08;;;20.80;72.00;;;;;;5018494;28;20057;-71
2021/05/13 09:21:58;;;;;;;4.35;1.63;;;20.50;73.00;;;;;;5018553;28;20034;-70
2021/05/13 09:24:49;;;;;;;4.47;1.48;;;19.80;74.90;;;;;;5018346;28;20030;-70
2021/05/13 09:27:45;;;;;;;5.28;1.75;;;19.10;77.50;;;;;;5018268;28;20061;-70
2021/05/13 09:30:22;;;;;;;2.20;1.70;;;19.00;76.20;;;;;;5018606;28;20202;-70
2021/05/13 09:32:51;;;;;;;4.85;1.73;;;19.20;78.70;;;;;;5018383;28;20420;-72
2021/05/13 09:35:20;;;;;;;9.63;2.13;;;19.50;78.50;;;;;;5018192;28;20441;-72
2021/05/13 09:37:52;;;;;;;5.13;1.45;;;19.70;78.10;;;;;;5018239;28;20021;-70
2021/05/13 09:40:53;;;;;;;3.75;2.25;;;19.50;78.40;;;;;;5018163;28;20041;-70
2021/05/13 09:43:24;;;;;;;4.15;1.60;;;19.60;72.40;;;;;;5018273;28;20079;-70
2021/05/13 09:45:51;;;;;;;8.82;1.60;;;20.50;76.30;;;;;;5017993;28;20464;-70
2021/05/13 09:48:36;;;;;;;10.23;1.83;;;21.00;77.00;;;;;;5017959;28;20028;-70
2021/05/13 09:51:27;;;;;;;3.83;1.35;;;21.70;74.80;;;;;;5017751;28;20035;-70
2021/05/13 09:54:09;;;;;;;4.28;1.73;;;22.30;67.10;;;;;;5018106;28;20082;-70
2021/05/13 09:56:40;;;;;;;8.50;1.45;;;22.10;66.70;;;;;;5018351;28;20040;-70
2021/05/13 09:59:22;;;;;;;1.75;1.20;;;22.00;70.10;;;;;;5018187;28;20038;-71
2021/05/13 10:01:50;;;;;;;3.60;1.45;;;21.80;68.20;;;;;;5018090;28;20042;-71
2021/05/13 10:04:15;;;;;;;4.47;1.23;;;20.90;68.30;;;;;;5018020;28;20399;-70
2021/05/13 10:06:41;;;;;;;4.43;1.15;;;19.80;72.00;;;;;;5017699;28;20034;-70
2021/05/13 10:09:08;;;;;;;2.28;1.25;;;19.30;74.90;;;;;;5017922;28;20045;-72
2021/05/13 10:11:34;;;;;;;1.80;1.20;;;18.90;75.40;;;;;;5017881;28;20034;-70
2021/05/13 10:14:00;;;;;;;2.53;1.48;;;18.70;76.40;;;;;;5017225;28;20030;-70
2021/05/13 10:16:28;;;;;;;1.83;1.30;;;18.60;77.10;;;;;;5024022;28;20288;-70
2021/05/13 10:19:08;;;;;;;2.40;1.50;;;18.50;79.30;;;;;;5024128;28;20037;-70
2021/05/13 10:21:36;;;;;;;3.90;1.65;;;18.60;78.90;;;;;;5017765;28;20030;-70
2021/05/13 10:24:03;;;;;;;2.80;1.52;;;18.60;76.10;;;;;;5017633;28;20026;-70
2021/05/13 10:26:39;;;;;;;2.63;2.10;;;18.50;78.50;;;;;;5017346;28;20125;-70
2021/05/13 10:29:20;;;;;;;3.75;2.00;;;18.40;75.30;;;;;;5017269;28;20553;-72
2021/05/13 10:32:02;;;;;;;2.55;1.85;;;17.90;75.70;;;;;;5017635;28;20050;-70
2021/05/13 10:34:41;;;;;;;2.72;1.60;;;17.60;79.60;;;;;;5017475;28;20312;-72
2021/05/13 10:37:17;;;;;;;3.63;1.38;;;17.50;81.60;;;;;;5017188;28;20030;-70
2021/05/13 10:40:08;;;;;;;2.45;1.60;;;17.40;81.60;;;;;;5017230;28;20073;-70
2021/05/13 10:42:36;;;;;;;2.95;1.33;;;17.50;81.40;;;;;;5017467;28;20330;-70
2021/05/13 10:45:31;;;;;;;5.18;1.80;;;18.00;80.50;;;;;;5017340;28;20381;-71
2021/05/13 10:48:18;;;;;;;8.18;1.40;;;18.50;78.20;;;;;;5017050;28;20072;-70
2021/05/13 10:51:03;;;;;;;5.85;1.60;;;18.90;76.70;;;;;;5017338;28;20038;-70
2021/05/13 10:53:39;;;;;;;3.28;1.80;;;19.00;76.90;;;;;;5017335;28;20514;-70
2021/05/13 10:56:12;;;;;;;7.35;1.65;;;19.10;74.00;;;;;;5016942;28;20026;-72
2021/05/13 10:58:59;;;;;;;3.00;1.60;;;19.00;78.00;;;;;;5017232;28;20037;-70
2021/05/13 11:01:47;;;;;;;2.08;1.30;;;18.90;77.80;;;;;;5016918;28;20056;-70
2021/05/13 11:04:22;;;;;;;4.45;1.35;;;18.70;74.10;;;;;;5016396;28;20038;-70
2021/05/13 11:06:50;;;;;;;2.50;1.05;;;18.60;81.40;;;;;;5016870;28;20037;-70
2021/05/13 11:09:41;;;;;;;4.53;1.33;;;18.50;81.10;;;;;;5016681;28;20061;-71
2021/05/13 11:12:14;;;;;;;2.20;1.30;;;18.40;77.10;;;;;;5016834;28;20097;-70
2021/05/13 11:15:07;;;;;;;1.88;1.10;;;18.20;74.30;;;;;;5017010;28;20026;-70
2021/05/13 11:20:29;;;;;;;2.38;1.00;;;17.60;79.60;;;;;;5017069;28;20038;-70
2021/05/13 11:22:57;;;;;;;1.70;1.20;;;17.50;81.10;;;;;;5017090;28;20072;-72
2021/05/13 11:25:53;;;;;;;2.47;1.65;;;17.40;78.50;;;;;;5016715;28;20060;-71
2021/05/13 11:28:26;;;;;;;2.20;1.33;;;17.30;81.50;;;;;;5016367;28;20100;-70
2021/05/13 11:30:55;;;;;;;3.72;1.33;;;17.10;77.60;;;;;;5016630;28;20029;-70
2021/05/13 11:33:21;;;;;;;4.15;1.50;;;17.00;81.40;;;;;;5016677;28;20026;-72
2021/05/13 11:35:48;;;;;;;1.83;1.30;;;16.90;80.60;;;;;;5016496;28;20410;-72
2021/05/13 11:38:19;;;;;;;2.65;1.40;;;16.80;81.00;;;;;;5016901;28;20030;-70
2021/05/13 11:40:46;;;;;;;1.83;1.20;;;16.70;80.80;;;;;;5016522;28;20022;-71
2021/05/13 11:43:16;;;;;;;1.60;1.50;;;16.70;83.30;;;;;;5016884;28;20405;-71
2021/05/13 11:45:42;;;;;;;2.28;1.40;;;16.60;80.40;;;;;;5016486;28;20025;-72
2021/05/13 11:48:27;;;;;;;3.40;1.20;;;16.50;81.90;;;;;;5016442;28;20022;-71
2021/05/13 11:50:57;;;;;;;2.08;1.25;;;16.30;84.70;;;;;;5016781;28;20029;-71
2021/05/13 11:53:24;;;;;;;1.70;1.60;;;16.10;83.30;;;;;;5016772;28;20030;-72
2021/05/13 11:55:50;;;;;;;1.63;1.35;;;15.90;82.00;;;;;;5016634;28;20079;-70
2021/05/13 11:58:43;;;;;;;6.15;1.60;;;15.80;84.10;;;;;;5016713;28;20079;-72
2021/05/13 12:01:26;;;;;;;1.58;1.33;;;15.60;82.50;;;;;;5016635;28;20095;-72
2021/05/13 12:04:11;;;;;;;2.08;1.80;;;15.40;84.80;;;;;;5016292;28;20030;-72
2021/05/13 12:06:43;;;;;;;1.90;1.60;;;15.00;85.90;;;;;;5016632;28;20030;-72
2021/05/13 12:09:09;;;;;;;1.60;1.50;;;14.80;87.10;;;;;;5016526;28;20033;-72
2021/05/13 12:11:35;;;;;;;1.80;1.52;;;14.70;87.90;;;;;;5016549;28;20292;-72
2021/05/13 12:14:07;;;;;;;2.00;1.70;;;14.60;88.10;;;;;;5016470;28;20056;-72
2021/05/13 12:16:33;;;;;;;4.15;2.05;;;14.50;90.00;;;;;;5019931;28;20092;-73
2021/05/13 12:19:07;;;;;;;3.75;2.20;;;14.40;90.80;;;;;;5019743;28;20411;-72
2021/05/13 12:21:36;;;;;;;11.40;2.60;;;14.20;91.10;;;;;;5019741;28;20022;-72
2021/05/13 12:24:03;;;;;;;20.15;2.92;;;14.20;93.70;;;;;;5019882;28;20058;-72
2021/05/13 12:26:34;;;;;;;20.77;3.40;;;13.90;95.50;;;;;;5019586;28;20045;-73
2021/05/13 12:29:02;;;;;;;20.42;3.28;;;13.40;96.60;;;;;;5019449;28;20042;-72
2021/05/13 12:31:28;;;;;;;22.45;2.35;;;13.00;98.00;;;;;;5019805;28;20357;-72
2021/05/13 12:33:54;;;;;;;3.83;1.75;;;12.80;97.90;;;;;;5019361;28;20026;-71
2021/05/13 12:36:20;;;;;;;5.63;0.95;;;12.10;93.50;;;;;;5019712;28;20473;-71
2021/05/13 12:38:45;;;;;;;49.15;3.58;;;11.40;95.00;;;;;;5019392;28;20025;-71
2021/05/13 12:41:15;;;;;;;3.33;0.75;;;11.10;96.80;;;;;;5019613;28;20037;-71
2021/05/13 12:43:43;;;;;;;8.32;0.85;;;10.90;96.90;;;;;;5019505;28;20034;-71
2021/05/13 12:46:19;;;;;;;5.53;0.60;;;10.70;98.00;;;;;;5019506;28;20034;-71
2021/05/13 12:48:46;;;;;;;9.30;0.65;;;10.70;98.00;;;;;;5019454;28;20322;-72
2021/05/13 12:51:21;;;;;;;0.57;0.30;;;10.70;98.00;;;;;;5019388;28;20030;-72
2021/05/13 12:53:52;;;;;;;5.25;0.30;;;10.70;98.00;;;;;;5019355;28;20025;-72
2021/05/13 12:56:36;;;;;;;2.05;0.30;;;10.80;98.00;;;;;;5019441;28;20022;-72
2021/05/13 12:59:12;;;;;;;2.40;0.28;;;10.80;98.00;;;;;;5019015;28;20037;-72
2021/05/13 13:01:40;;;;;;;1.88;0.20;;;10.90;98.00;;;;;;5018929;28;20037;-72
2021/05/13 13:04:08;;;;;;;0.75;0.25;;;11.10;98.00;;;;;;5019153;28;20402;-72
2021/05/13 13:06:47;;;;;;;0.80;0.40;;;11.10;98.00;;;;;;5019134;28;20044;-72